Time;durP1;ratioP1;P1;durP2;ratioP2;P2;SDS_P1;SDS_P2;PMS_P1;PMS_P2;Temp;Humidity;BMP_temperature;BMP_pressure;BME280_temperature;BME280_humidity;BME280_pressure;Samples;Min_cycle;Max_cycle;Signal;HPM_P1;HPM_P2
2021/09/27 00:01:09;;;;;;;10.15;3.42;;;;;;;8.11;100.00;101212.61;1725845;83;21094;-81
2021/09/27 00:03:37;;;;;;;10.20;3.95;;;;;;;8.08;100.00;101227.83;1725357;81;21007;-82
2021/09/27 00:06:04;;;;;;;8.20;3.70;;;;;;;8.07;100.00;101212.25;1724432;81;21046;-81
2021/09/27 00:08:30;;;;;;;10.82;3.55;;;;;;;8.08;100.00;101213.88;1725687;81;21057;-81
2021/09/27 00:11:04;;;;;;;10.58;3.12;;;;;;;8.08;100.00;101208.50;1725902;81;21014;-82
2021/09/27 00:13:36;;;;;;;12.20;3.33;;;;;;;8.07;100.00;101207.41;1725553;83;22353;-82
2021/09/27 00:16:05;;;;;;;10.75;3.60;;;;;;;8.07;100.00;101209.56;1724394;81;20971;-82
2021/09/27 00:18:30;;;;;;;11.48;4.15;;;;;;;8.04;100.00;101206.52;1725694;82;21007;-82
2021/09/27 00:21:01;;;;;;;12.10;3.67;;;;;;;8.04;100.00;101202.50;1725805;81;20872;-82
2021/09/27 00:23:31;;;;;;;7.85;3.33;;;;;;;8.04;100.00;101199.81;1725584;81;21053;-82
2021/09/27 00:25:58;;;;;;;12.90;3.98;;;;;;;8.04;100.00;101197.94;1725462;81;21015;-81
2021/09/27 00:28:25;;;;;;;12.30;4.00;;;;;;;8.04;100.00;101201.16;1725800;81;21059;-81
2021/09/27 00:30:52;;;;;;;8.45;3.40;;;;;;;8.03;100.00;101200.34;1725697;82;21043;-82
2021/09/27 00:33:21;;;;;;;13.65;3.52;;;;;;;8.05;100.00;101208.15;1725798;81;20995;-81
2021/09/27 00:35:50;;;;;;;10.25;4.03;;;;;;;8.04;100.00;101205.18;1725748;81;21003;-82
2021/09/27 00:38:18;;;;;;;6.90;3.40;;;;;;;8.03;100.00;101214.26;1725810;83;20995;-82
2021/09/27 00:40:49;;;;;;;12.25;3.80;;;;;;;8.02;100.00;101217.47;1725634;81;21015;-82
2021/09/27 00:43:16;;;;;;;7.87;3.10;;;;;;;8.01;100.00;101213.69;1663842;86;21007;-82
2021/09/27 00:45:47;;;;;;;8.88;3.95;;;;;;;8.00;100.00;101215.56;1663844;86;21466;-81
2021/09/27 00:48:14;;;;;;;10.03;3.77;;;;;;;8.00;100.00;101218.73;1584056;90;21139;-82
2021/09/27 00:50:45;;;;;;;9.23;3.87;;;;;;;8.00;100.00;101221.42;1583907;90;21156;-81
2021/09/27 00:53:22;;;;;;;10.70;3.90;;;;;;;7.99;100.00;101220.61;1583325;89;21097;-82
2021/09/27 00:55:48;;;;;;;15.15;4.00;;;;;;;8.01;100.00;101214.50;1557424;92;21101;-81
2021/09/27 00:58:17;;;;;;;8.28;3.67;;;;;;;8.01;100.00;101215.84;1559489;92;21117;-82
2021/09/27 01:00:43;;;;;;;13.62;4.03;;;;;;;8.01;100.00;101221.21;1559298;92;21148;-82
2021/09/27 01:03:09;;;;;;;7.25;3.30;;;;;;;8.01;100.00;101223.89;1559516;92;21174;-81
2021/09/27 01:05:40;;;;;;;8.98;3.70;;;;;;;8.00;100.00;101234.34;1559355;92;21101;-82
2021/09/27 01:08:28;;;;;;;10.65;3.45;;;;;;;7.97;100.00;101226.72;1559580;92;21041;-81
2021/09/27 01:11:17;;;;;;;9.40;3.90;;;;;;;7.95;100.00;101230.17;1559622;92;21575;-81
2021/09/27 01:14:08;;;;;;;12.25;4.33;;;;;;;7.92;100.00;101227.41;1559090;92;21070;-82
2021/09/27 01:16:51;;;;;;;8.08;3.40;;;;;;;7.89;100.00;101233.77;1559320;91;22068;-82
2021/09/27 01:19:47;;;;;;;10.95;3.98;;;;;;;7.90;100.00;101224.66;1486786;95;21129;-81
2021/09/27 01:22:45;;;;;;;8.75;3.72;;;;;;;7.87;100.00;101226.45;1488767;95;21180;-82
2021/09/27 01:25:48;;;;;;;7.47;4.00;;;;;;;7.84;100.00;101230.41;1491376;94;21545;-82
2021/09/27 01:28:57;;;;;;;11.50;4.22;;;;;;;7.82;100.00;101235.69;1488719;96;21129;-81
2021/09/27 01:32:16;;;;;;;14.85;4.05;;;;;;;7.79;100.00;101246.34;1488953;95;22005;-81
2021/09/27 01:34:48;;;;;;;12.28;4.08;;;;;;;7.76;100.00;101241.96;1488624;96;21156;-81
2021/09/27 01:37:22;;;;;;;14.18;4.40;;;;;;;7.71;100.00;101244.81;1488961;96;21096;-81
2021/09/27 01:40:02;;;;;;;10.98;4.03;;;;;;;7.68;100.00;101237.73;1508317;91;21147;-81
2021/09/27 01:42:42;;;;;;;10.28;4.40;;;;;;;7.69;100.00;101248.75;1532600;92;21736;-81
2021/09/27 01:45:49;;;;;;;7.55;4.37;;;;;;;7.66;100.00;101253.23;1500027;93;22030;-81
2021/09/27 01:48:26;;;;;;;9.58;4.30;;;;;;;7.64;100.00;101258.80;1514041;94;21678;-81
2021/09/27 01:51:15;;;;;;;13.28;4.83;;;;;;;7.64;100.00;101252.62;1512378;94;21631;-82
2021/09/27 01:53:49;;;;;;;13.40;4.17;;;;;;;7.65;100.00;101262.33;1514169;94;21146;-81
2021/09/27 01:56:46;;;;;;;15.75;4.28;;;;;;;7.61;100.00;101259.25;1444494;97;21091;-81
2021/09/27 01:59:24;;;;;;;10.43;4.33;;;;;;;7.58;100.00;101258.36;1446414;97;21134;-81
2021/09/27 02:02:13;;;;;;;14.78;5.03;;;;;;;7.57;100.00;101259.94;1446484;97;21139;-81
2021/09/27 02:05:03;;;;;;;10.60;4.58;;;;;;;7.56;100.00;101260.47;1444228;97;21140;-81
2021/09/27 02:07:34;;;;;;;14.28;4.12;;;;;;;7.55;100.00;101258.80;1446716;97;21114;-81
2021/09/27 02:10:18;;;;;;;10.80;4.60;;;;;;;7.55;100.00;101271.40;1444163;97;21591;-81
2021/09/27 02:12:58;;;;;;;9.58;4.42;;;;;;;7.57;100.00;101267.98;1425179;100;21698;-81
2021/09/27 02:15:47;;;;;;;12.15;4.40;;;;;;;7.57;100.00;101268.80;1430132;98;21153;-81
2021/09/27 02:18:29;;;;;;;11.03;4.55;;;;;;;7.61;100.00;101268.64;1422272;100;21118;-82
2021/09/27 02:21:01;;;;;;;10.15;4.55;;;;;;;7.64;100.00;101273.55;1422505;99;21613;-81
2021/09/27 02:23:32;;;;;;;12.60;4.65;;;;;;;7.64;100.00;101275.42;1422000;100;21096;-81
2021/09/27 02:25:58;;;;;;;11.25;4.95;;;;;;;7.67;100.00;101279.81;1418573;101;21894;-81
2021/09/27 02:28:26;;;;;;;14.43;5.20;;;;;;;7.72;100.00;101282.66;1420911;101;21623;-80
2021/09/27 02:31:09;;;;;;;10.28;4.30;;;;;;;7.71;100.00;101282.89;1420797;99;21748;-81
2021/09/27 02:33:49;;;;;;;11.35;4.70;;;;;;;7.69;100.00;101276.92;1420875;101;21088;-81
2021/09/27 02:36:20;;;;;;;10.38;4.12;;;;;;;7.68;100.00;101279.31;1419470;101;21199;-81
2021/09/27 02:39:12;;;;;;;8.38;4.53;;;;;;;7.67;100.00;101284.36;1423181;100;21993;-81
2021/09/27 02:41:52;;;;;;;11.03;4.90;;;;;;;7.64;100.00;101282.13;1422542;100;21724;-81
2021/09/27 02:44:19;;;;;;;11.78;4.45;;;;;;;7.62;100.00;101285.05;1404558;102;21683;-81
2021/09/27 02:46:55;;;;;;;11.73;4.20;;;;;;;7.61;100.00;101288.75;1404585;100;21698;-81
2021/09/27 02:49:33;;;;;;;11.73;4.92;;;;;;;7.56;100.00;101291.31;1404510;102;21183;-81
2021/09/27 02:52:03;;;;;;;12.07;4.90;;;;;;;7.54;100.00;101295.25;1404322;102;22111;-81
2021/09/27 02:54:34;;;;;;;8.88;4.47;;;;;;;7.53;100.00;101298.95;1382485;102;21659;-81
2021/09/27 02:57:20;;;;;;;12.60;4.58;;;;;;;7.50;100.00;101289.52;1393553;102;21132;-81
2021/09/27 03:00:03;;;;;;;13.10;5.05;;;;;;;7.47;100.00;101288.59;1393836;102;21761;-81
2021/09/27 03:03:02;;;;;;;12.40;4.62;;;;;;;7.47;100.00;101289.94;1394232;102;21167;-81
2021/09/27 03:06:00;;;;;;;12.93;5.08;;;;;;;7.46;100.00;101295.01;1401146;101;21389;-81
2021/09/27 03:08:55;;;;;;;11.03;5.20;;;;;;;7.39;100.00;101292.92;1434321;99;21112;-81
2021/09/27 03:11:45;;;;;;;9.48;4.78;;;;;;;7.33;100.00;101292.47;1376542;104;21133;-81
2021/09/27 03:14:42;;;;;;;9.05;4.53;;;;;;;7.28;100.00;101295.80;1376738;104;21113;-81
2021/09/27 03:17:37;;;;;;;11.15;4.80;;;;;;;7.24;100.00;101300.79;1376964;104;21162;-81
2021/09/27 03:20:20;;;;;;;12.85;5.12;;;;;;;7.21;100.00;101303.09;1294270;109;21259;-81
2021/09/27 03:23:08;;;;;;;11.05;4.83;;;;;;;7.16;100.00;101295.70;1308655;109;21155;-80
2021/09/27 03:25:56;;;;;;;13.53;5.15;;;;;;;7.13;100.00;101301.50;1308390;109;21246;-80
2021/09/27 03:28:57;;;;;;;10.23;4.60;;;;;;;7.10;100.00;101305.95;1306640;109;21156;-80
2021/09/27 03:31:40;;;;;;;9.50;4.80;;;;;;;7.06;100.00;101308.79;1308151;109;21211;-80
2021/09/27 03:34:30;;;;;;;11.18;4.70;;;;;;;7.02;100.00;101308.91;1308542;109;21275;-80
2021/09/27 03:37:19;;;;;;;11.15;4.80;;;;;;;7.00;100.00;101306.95;1329547;107;21166;-80
2021/09/27 03:40:05;;;;;;;9.93;4.78;;;;;;;6.96;100.00;101319.16;1340056;106;21690;-80
2021/09/27 03:43:06;;;;;;;11.85;5.00;;;;;;;6.93;100.00;101320.41;1354673;106;21199;-80
2021/09/27 03:45:59;;;;;;;11.15;4.58;;;;;;;6.93;100.00;101326.30;1356551;104;21643;-81
2021/09/27 03:48:49;;;;;;;12.07;4.75;;;;;;;6.90;100.00;101316.02;1396643;101;21228;-81
2021/09/27 03:51:47;;;;;;;13.88;5.70;;;;;;;6.89;100.00;101315.20;1417419;101;21175;-81
2021/09/27 03:54:33;;;;;;;10.85;5.28;;;;;;;6.91;100.00;101317.64;1417494;101;21628;-80
2021/09/27 03:57:07;;;;;;;10.78;4.33;;;;;;;6.97;100.00;101331.50;1412852;96;21193;-81
2021/09/27 03:59:47;;;;;;;11.15;5.20;;;;;;;7.02;100.00;101327.14;1415235;101;21106;-81
2021/09/27 04:02:54;;;;;;;13.53;5.45;;;;;;;7.10;100.00;101327.41;1457225;95;21995;-80
2021/09/27 04:05:29;;;;;;;12.13;5.05;;;;;;;7.17;100.00;101332.70;1456586;97;21177;-80
2021/09/27 04:08:13;;;;;;;8.40;4.30;;;;;;;7.27;100.00;101331.17;1417724;98;21053;-81
2021/09/27 04:11:30;;;;;;;13.95;4.97;;;;;;;7.37;100.00;101324.49;1433821;99;21119;-80
2021/09/27 04:14:07;;;;;;;10.28;5.08;;;;;;;7.48;100.00;101332.63;1415849;100;21658;-80
2021/09/27 04:16:41;;;;;;;10.60;4.75;;;;;;;7.61;100.00;101328.98;1411727;100;21312;-80
2021/09/27 04:19:25;;;;;;;11.70;4.80;;;;;;;7.75;100.00;101329.69;1404887;100;21497;-81
2021/09/27 04:22:12;;;;;;;;;;;;;;;7.90;100.00;101336.02;1423322;98;21098;-80
2021/09/27 04:25:20;;;;;;;9.85;4.72;;;;;;;8.08;100.00;101340.03;1419354;100;20187;-80
2021/09/27 04:28:20;;;;;;;11.18;4.42;;;;;;;8.27;100.00;101332.80;1421784;99;21153;-81
2021/09/27 04:31:37;;;;;;;9.80;4.45;;;;;;;8.49;100.00;101330.46;1419366;100;21224;-80
2021/09/27 04:34:32;;;;;;;7.67;4.25;;;;;;;8.78;100.00;101327.47;1456236;94;21426;-80
2021/09/27 04:37:00;;;;;;;7.85;3.90;;;;;;;9.48;100.00;101326.74;1511306;94;21698;-80
2021/09/27 04:39:31;;;;;;;6.67;4.05;;;;;;;10.27;100.00;101330.33;1513152;93;21124;-81
2021/09/27 04:42:24;;;;;;;8.60;3.37;;;;;;;11.60;100.00;101319.08;1478013;95;21094;-81
2021/09/27 04:45:06;;;;;;;5.22;3.40;;;;;;;12.98;100.00;101320.66;1464069;96;21108;-81
2021/09/27 04:48:16;;;;;;;7.07;3.37;;;;;;;15.04;100.00;101314.51;1438532;99;21212;-81
2021/09/27 04:50:53;;;;;;;6.12;3.25;;;;;;;16.68;100.00;101318.86;1473120;97;21114;-81
2021/09/27 04:53:59;;;;;;;4.47;2.60;;;;;;;18.27;100.00;101311.84;1429409;99;21078;-81
2021/09/27 04:56:53;;;;;;;4.37;2.60;;;;;;;19.43;100.00;101306.97;1438856;99;21182;-82
2021/09/27 04:59:33;;;;;;;5.10;2.42;;;;;;;20.85;100.00;101309.20;1429396;100;21191;-82
2021/09/27 05:02:25;;;;;;;4.85;2.92;;;;;;;21.78;98.94;101306.21;1429521;99;21484;-81
2021/09/27 05:05:08;;;;;;;4.58;2.75;;;;;;;22.49;82.26;101307.41;1471985;95;21086;-82
2021/09/27 05:08:07;;;;;;;4.22;2.60;;;;;;;22.86;73.00;101302.39;1491911;96;21083;-82
2021/09/27 05:10:59;;;;;;;3.27;2.37;;;;;;;23.39;70.68;101309.41;1492329;96;21272;-82
2021/09/27 05:14:02;;;;;;;4.30;2.33;;;;;;;24.29;62.98;101301.39;1521364;94;21214;-83
2021/09/27 05:16:48;;;;;;;;;;;;;;;24.90;57.24;101302.27;1499728;95;21242;-81
2021/09/27 05:19:31;;;;;;;3.67;2.30;;;;;;;25.52;53.23;101305.41;1509184;95;20107;-81
2021/09/27 05:22:17;;;;;;;2.90;2.42;;;;;;;25.85;53.17;101300.95;1516402;94;21161;-82
2021/09/27 05:25:24;;;;;;;5.53;3.02;;;;;;;26.34;47.85;101299.49;1517366;94;21147;-82
2021/09/27 05:28:10;;;;;;;2.40;2.20;;;;;;;26.80;48.03;101298.66;1498408;95;21237;-81
2021/09/27 05:30:58;;;;;;;3.15;2.30;;;;;;;27.42;44.96;101310.20;1495542;95;21100;-82
2021/09/27 05:33:52;;;;;;;3.35;2.70;;;;;;;27.57;43.77;101304.64;1498400;95;21099;-82
2021/09/27 05:36:39;;;;;;;3.05;2.65;;;;;;;28.33;44.65;101306.40;1498433;95;21076;-81
2021/09/27 05:39:30;;;;;;;3.15;2.65;;;;;;;28.98;40.90;101308.70;1497916;95;21188;-82
2021/09/27 05:42:43;;;;;;;6.87;2.85;;;;;;;29.31;40.02;101307.33;1489798;95;21164;-81
2021/09/27 05:45:26;;;;;;;4.28;2.55;;;;;;;29.13;37.86;101302.86;1451985;98;21163;-80
2021/09/27 05:48:18;;;;;;;3.83;2.50;;;;;;;29.33;38.94;101307.77;1427927;100;21204;-80
2021/09/27 05:50:50;;;;;;;3.95;2.60;;;;;;;29.53;36.67;101315.45;1452612;98;21165;-80
2021/09/27 05:53:45;;;;;;;2.92;2.62;;;;;;;29.32;36.15;101318.64;1431337;99;21144;-80
2021/09/27 05:56:43;;;;;;;3.30;2.45;;;;;;;29.50;35.90;101314.78;1431390;99;21205;-79
2021/09/27 05:59:45;;;;;;;3.87;2.52;;;;;;;29.62;35.14;101317.97;1431378;99;21160;-79
2021/09/27 06:02:34;;;;;;;3.70;2.10;;;;;;;30.26;35.43;101312.59;1431634;100;21057;-80
2021/09/27 06:05:17;;;;;;;6.72;2.20;;;;;;;30.89;33.57;101317.95;1438755;98;21163;-80
2021/09/27 06:08:20;;;;;;;3.45;2.20;;;;;;;30.89;33.57;101317.95;1490892;96;21182;-80
2021/09/27 06:10:57;;;;;;;3.27;2.33;;;;;;;31.23;31.81;101325.03;1456499;97;21279;-79
2021/09/27 06:13:34;;;;;;;3.25;1.98;;;;;;;30.38;34.83;101324.86;1455496;98;21158;-79
2021/09/27 06:16:17;;;;;;;3.40;2.20;;;;;;;30.11;32.76;101327.66;1455387;98;21105;-79
2021/09/27 06:19:07;;;;;;;2.52;2.30;;;;;;;29.87;32.21;101330.29;1440062;99;21118;-80
2021/09/27 06:22:04;;;;;;;2.95;1.82;;;;;;;29.85;31.99;101334.02;1440163;99;21068;-80
2021/09/27 06:24:47;;;;;;;2.08;1.75;;;;;;;29.07;32.72;101334.08;1440334;99;21095;-79
2021/09/27 06:27:28;;;;;;;2.20;1.80;;;;;;;29.30;32.81;101339.66;1428498;100;21075;-80
2021/09/27 06:30:17;;;;;;;1.60;1.50;;;;;;;28.90;31.82;101337.48;1453704;97;21169;-79
2021/09/27 06:33:22;;;;;;;1.87;1.72;;;;;;;28.82;32.56;101332.17;1471886;96;21804;-79
2021/09/27 06:35:52;;;;;;;3.77;1.80;;;;;;;28.98;32.76;101336.47;1476672;96;21086;-81
2021/09/27 06:38:25;;;;;;;1.82;1.72;;;;;;;29.43;32.45;101329.95;1493876;94;21579;-81
2021/09/27 06:40:51;;;;;;;1.62;1.52;;;;;;;29.36;31.65;101333.41;1490926;96;22382;-81
2021/09/27 06:43:22;;;;;;;2.15;1.70;;;;;;;29.59;32.35;101336.75;1493161;96;21113;-82
2021/09/27 06:45:49;;;;;;;3.02;1.98;;;;;;;30.37;32.18;101338.56;1493448;96;21065;-81
2021/09/27 06:48:15;;;;;;;3.75;1.65;;;;;;;30.34;31.20;101335.15;1493188;96;21627;-83
2021/09/27 06:50:41;;;;;;;2.75;1.85;;;;;;;31.04;31.51;101332.22;1540049;92;21096;-81
2021/09/27 06:53:07;;;;;;;2.98;1.70;;;;;;;31.37;29.86;101334.75;1560450;92;21139;-83
2021/09/27 06:55:33;;;;;;;3.52;2.10;;;;;;;31.20;29.42;101334.75;1571420;90;20919;-82
2021/09/27 06:57:59;;;;;;;2.17;1.98;;;;;;;31.40;30.31;101339.55;1581792;90;20999;-84
2021/09/27 07:00:25;;;;;;;3.15;2.15;;;;;;;32.02;29.60;101343.83;1582003;90;21121;-82
2021/09/27 07:02:51;;;;;;;3.72;2.00;;;;;;;32.10;28.18;101341.29;1581778;90;21188;-83
2021/09/27 07:05:17;;;;;;;4.33;2.20;;;;;;;31.85;28.84;101348.05;1646492;86;20887;-82
2021/09/27 07:07:44;;;;;;;2.20;1.98;;;;;;;31.67;28.43;101341.56;1696649;83;21010;-82
2021/09/27 07:10:16;;;;;;;1.98;1.87;;;;;;;31.64;29.23;101345.91;1696412;83;21062;-84
2021/09/27 07:12:42;;;;;;;3.27;2.30;;;;;;;32.43;29.13;101341.45;1696763;83;21071;-83
2021/09/27 07:15:09;;;;;;;3.50;1.80;;;;;;;31.54;28.41;101343.86;1696539;83;21411;-82
2021/09/27 07:17:36;;;;;;;1.80;1.70;;;;;;;30.89;29.35;101341.02;1696574;83;21018;-82
2021/09/27 07:20:06;;;;;;;1.82;1.70;;;;;;;30.25;29.86;101343.77;1656986;86;21125;-82
2021/09/27 07:22:32;;;;;;;2.20;2.00;;;;;;;30.97;29.68;101344.09;1607616;89;21023;-82
2021/09/27 07:24:58;;;;;;;2.75;1.60;;;;;;;30.93;30.02;101339.66;1608017;89;21039;-82
2021/09/27 07:27:24;;;;;;;5.20;1.67;;;;;;;31.29;29.44;101349.77;1627106;87;21578;-82
2021/09/27 07:29:50;;;;;;;2.05;1.95;;;;;;;31.55;29.40;101354.41;1612607;87;20916;-83
2021/09/27 07:32:16;;;;;;;4.90;1.95;;;;;;;32.10;29.64;101355.84;1634412;87;21632;-82
2021/09/27 07:34:41;;;;;;;2.37;2.17;;;;;;;32.16;27.66;101354.27;1634090;87;20957;-83
2021/09/27 07:37:07;;;;;;;4.62;1.95;;;;;;;31.72;28.65;101356.53;1633051;87;20913;-83
2021/09/27 07:39:34;;;;;;;2.42;2.22;;;;;;;32.49;28.11;101353.27;1634361;87;21808;-84
2021/09/27 07:42:00;;;;;;;4.92;2.05;;;;;;;31.75;27.96;101360.55;1634466;87;21132;-82
2021/09/27 07:44:27;;;;;;;2.77;1.80;;;;;;;31.32;28.10;101354.56;1637364;87;21048;-83
2021/09/27 07:46:53;;;;;;;2.42;1.72;;;;;;;31.67;28.28;101356.29;1641010;87;21103;-82
2021/09/27 07:49:19;;;;;;;1.92;1.80;;;;;;;31.64;27.63;101359.85;1641136;87;21027;-83
2021/09/27 07:51:44;;;;;;;2.15;1.95;;;;;;;31.02;29.07;101358.84;1640830;87;21145;-81
2021/09/27 07:54:10;;;;;;;2.35;1.57;;;;;;;31.71;29.74;101361.09;1640982;87;21097;-82
2021/09/27 07:56:36;;;;;;;2.45;1.57;;;;;;;32.44;26.86;101364.77;1641213;87;20898;-82
2021/09/27 07:59:06;;;;;;;1.92;1.82;;;;;;;31.29;27.38;101363.09;1640381;86;20972;-81
2021/09/27 08:01:31;;;;;;;4.97;1.67;;;;;;;31.26;27.74;101353.31;1640884;87;21010;-81
2021/09/27 08:03:56;;;;;;;2.25;1.85;;;;;;;31.61;27.01;101350.08;1641128;87;22007;-80
2021/09/27 08:06:22;;;;;;;3.72;1.65;;;;;;;31.36;27.02;101355.45;1640976;87;20961;-82
2021/09/27 08:08:48;;;;;;;2.92;1.50;;;;;;;30.53;27.87;101362.84;1641176;87;21071;-82
2021/09/27 08:11:14;;;;;;;3.12;1.60;;;;;;;31.06;27.51;101358.28;1641090;87;20917;-82
2021/09/27 08:13:40;;;;;;;1.90;1.67;;;;;;;31.47;26.63;101355.52;1640731;86;20990;-82
2021/09/27 08:16:06;;;;;;;1.98;1.80;;;;;;;31.86;27.49;101350.28;1619114;87;21114;-82
2021/09/27 08:18:32;;;;;;;1.60;1.50;;;;;;;31.81;26.58;101350.62;1640906;87;21556;-81
2021/09/27 08:21:03;;;;;;;2.80;1.87;;;;;;;31.34;25.60;101346.03;1618145;87;20941;-82
2021/09/27 08:23:30;;;;;;;1.62;1.52;;;;;;;30.81;27.31;101349.07;1638234;86;21116;-82
2021/09/27 08:25:57;;;;;;;1.55;1.37;;;;;;;31.28;27.42;101350.95;1685210;82;21002;-80
2021/09/27 08:28:26;;;;;;;1.98;1.40;;;;;;;31.84;26.24;101349.85;1725773;81;21506;-81
2021/09/27 08:30:58;;;;;;;1.12;1.12;;;;;;;31.95;25.98;101346.58;1724355;81;21023;-81
2021/09/27 08:33:25;;;;;;;2.02;1.40;;;;;;;30.98;26.02;101337.93;1655799;86;21003;-81
2021/09/27 08:35:53;;;;;;;1.85;1.32;;;;;;;30.86;26.75;101332.63;1654813;85;21066;-81
2021/09/27 08:38:22;;;;;;;2.45;1.10;;;;;;;30.86;26.75;101332.63;1656174;86;21015;-82
2021/09/27 08:41:08;;;;;;;1.50;1.10;;;;;;;30.72;26.16;101354.11;1656041;86;21112;-81
2021/09/27 08:43:59;;;;;;;4.50;1.17;;;;;;;31.43;25.85;101339.58;1605796;89;20988;-81
2021/09/27 08:46:42;;;;;;;1.22;1.12;;;;;;;31.43;25.85;101339.58;1607079;89;21591;-82
2021/09/27 08:49:50;;;;;;;1.30;1.20;;;;;;;30.02;25.84;101351.35;1606090;89;21548;-81
2021/09/27 08:52:19;;;;;;;1.00;1.00;;;;;;;30.20;27.17;101344.66;1606876;89;21083;-82
2021/09/27 08:54:48;;;;;;;1.55;1.10;;;;;;;31.02;25.80;101343.53;1606832;89;21260;-82
2021/09/27 08:57:43;;;;;;;1.27;1.07;;;;;;;29.49;26.62;101354.84;1606273;89;21079;-82
2021/09/27 09:00:23;;;;;;;1.20;1.10;;;;;;;28.32;27.43;101354.09;1606809;89;21076;-81
2021/09/27 09:03:12;;;;;;;1.30;0.88;;;;;;;28.66;27.64;101339.99;1606738;89;21052;-81
2021/09/27 09:05:59;;;;;;;1.85;1.10;;;;;;;29.48;28.33;101345.52;1606994;89;21092;-86
2021/09/27 09:08:44;;;;;;;1.02;0.90;;;;;;;30.39;26.19;101337.61;1606891;89;21274;-84
2021/09/27 09:11:41;;;;;;;0.98;0.70;;;;;;;29.69;26.49;101349.27;1604692;89;21111;-81
2021/09/27 09:14:32;;;;;;;0.80;0.80;;;;;;;27.64;27.55;101346.94;1606922;89;21545;-83
2021/09/27 09:17:02;;;;;;;1.07;0.90;;;;;;;25.83;29.89;101351.83;1606861;89;21604;-85
2021/09/27 09:19:32;;;;;;;1.07;0.90;;;;;;;26.26;29.90;101337.16;1606933;89;21223;-83
2021/09/27 09:22:12;;;;;;;2.05;0.70;;;;;;;26.44;29.61;101341.28;1610892;88;21161;-83
2021/09/27 09:24:41;;;;;;;1.35;0.68;;;;;;;25.46;30.21;101347.39;1612905;88;21084;-85
2021/09/27 09:27:12;;;;;;;1.35;0.80;;;;;;;24.41;31.54;101346.11;1612937;88;21508;-82
2021/09/27 09:29:42;;;;;;;2.52;1.30;;;;;;;23.75;32.65;101351.60;1627071;84;21068;-82
2021/09/27 09:32:19;;;;;;;1.57;1.00;;;;;;;23.10;33.58;101354.12;1670531;84;21557;-82
2021/09/27 09:34:48;;;;;;;3.62;0.80;;;;;;;22.57;34.68;101356.63;1670453;84;21354;-82
2021/09/27 09:37:40;;;;;;;1.17;0.90;;;;;;;22.08;35.76;101353.11;1670297;85;21073;-82
2021/09/27 09:40:20;;;;;;;1.27;0.90;;;;;;;21.87;37.38;101350.15;1697913;83;21068;-82
2021/09/27 09:43:09;;;;;;;0.78;0.72;;;;;;;22.93;37.42;101351.36;1710017;83;21013;-82
2021/09/27 09:45:41;;;;;;;0.60;0.57;;;;;;;23.73;35.15;101347.56;1634460;86;21073;-82
2021/09/27 09:48:25;;;;;;;1.15;0.68;;;;;;;23.56;33.81;101350.61;1634787;86;21329;-84
2021/09/27 09:50:56;;;;;;;2.58;0.70;;;;;;;22.75;34.04;101352.74;1634749;86;21014;-86
2021/09/27 09:53:36;;;;;;;0.60;0.60;;;;;;;21.92;35.43;101355.50;1634709;86;21093;-84
2021/09/27 09:56:13;;;;;;;0.78;0.78;;;;;;;21.50;36.63;101354.45;1634599;86;21557;-82
2021/09/27 09:58:46;;;;;;;0.60;0.42;;;;;;;21.37;36.54;101355.89;1626672;86;21053;-82
2021/09/27 10:01:32;;;;;;;0.50;0.50;;;;;;;21.19;37.33;101358.50;1634626;87;21280;-82
2021/09/27 10:04:15;;;;;;;0.85;0.60;;;;;;;21.07;37.55;101358.26;1592020;88;21598;-82
2021/09/27 10:06:46;;;;;;;0.78;0.50;;;;;;;20.90;37.86;101349.34;1593064;88;21049;-83
2021/09/27 10:09:35;;;;;;;0.68;0.60;;;;;;;20.92;37.89;101353.96;1592997;88;21001;-82
2021/09/27 10:12:09;;;;;;;0.57;0.40;;;;;;;20.65;37.46;101348.03;1593120;88;21109;-82
2021/09/27 10:14:42;;;;;;;0.80;0.50;;;;;;;20.55;37.65;101348.25;1593048;88;21298;-82
2021/09/27 10:17:26;;;;;;;;;;;;;;;20.51;37.92;101348.59;1594395;89;21043;-82
2021/09/27 10:20:18;;;;;;;0.33;0.30;;;;;;;20.63;38.79;101351.06;1552815;92;20253;-81
2021/09/27 10:22:57;;;;;;;1.17;0.50;;;;;;;20.66;38.11;101352.37;1539111;91;21721;-84
2021/09/27 10:25:40;;;;;;;1.12;0.40;;;;;;;20.53;38.47;101347.73;1514902;94;21018;-83
2021/09/27 10:28:12;;;;;;;2.75;0.50;;;;;;;20.24;38.88;101355.75;1541551;93;21158;-83
2021/09/27 10:30:52;;;;;;;2.42;0.50;;;;;;;20.00;39.22;101355.14;1541662;93;21578;-82
2021/09/27 10:33:29;;;;;;;1.02;0.60;;;;;;;19.95;39.84;101359.61;1466531;96;21131;-83
2021/09/27 10:36:15;;;;;;;1.15;0.60;;;;;;;19.66;39.91;101353.62;1425711;100;21097;-83
2021/09/27 10:38:53;;;;;;;1.25;0.60;;;;;;;19.53;40.47;101355.20;1426510;99;21114;-82
2021/09/27 10:41:33;;;;;;;1.65;0.80;;;;;;;19.32;40.39;101354.73;1431922;99;22247;-84
2021/09/27 10:44:08;;;;;;;1.90;0.80;;;;;;;19.10;41.30;101361.41;1388185;102;21200;-82
2021/09/27 10:46:38;;;;;;;1.32;0.78;;;;;;;19.15;41.87;101353.11;1349962;106;21602;-82
2021/09/27 10:49:09;;;;;;;5.25;0.62;;;;;;;19.10;41.95;101359.48;1358421;104;21700;-82
2021/09/27 10:51:38;;;;;;;2.77;0.75;;;;;;;18.97;42.53;101356.14;1318973;106;21123;-82
2021/09/27 10:54:36;;;;;;;2.62;0.53;;;;;;;18.90;43.01;101363.91;;;;
2021/09/27 10:57:07;;;;;;;1.00;0.70;;;;;;;18.64;44.39;101362.08;1301180;108;21315;-82
2021/09/27 10:59:45;;;;;;;2.80;0.80;;;;;;;18.41;45.07;101360.47;1249154;113;21710;-83
2021/09/27 11:10:47;;;;;;;;;;;;;;;;;;;;;
2021/09/27 11:23:38;;;;;;;0.80;0.60;;;;;;;18.36;47.61;101360.00;1252669;113;21223;-82
2021/09/27 11:26:21;;;;;;;1.35;0.60;;;;;;;18.44;48.64;101366.70;1261767;112;21424;-83
2021/09/27 11:29:04;;;;;;;2.83;0.68;;;;;;;18.53;47.96;101364.12;1273131;111;21211;-82
2021/09/27 11:31:39;;;;;;;1.55;0.75;;;;;;;18.59;48.18;101358.33;1303698;108;21163;-82
2021/09/27 11:37:53;;;;;;;1.72;0.78;;;;;;;18.81;48.00;101361.84;1324464;107;21644;-81
2021/09/27 11:40:34;;;;;;;0.75;0.60;;;;;;;18.86;46.17;101362.89;1317727;106;21215;-82
2021/09/27 11:43:23;;;;;;;0.60;0.47;;;;;;;18.82;46.40;101360.75;1298397;109;21802;-81
2021/09/27 11:46:08;;;;;;;0.78;0.60;;;;;;;18.77;45.84;101358.09;1321445;107;21657;-81
2021/09/27 11:48:51;;;;;;;4.78;0.72;;;;;;;18.67;46.78;101359.56;1332871;107;21606;-83
2021/09/27 11:51:22;;;;;;;1.12;0.60;;;;;;;18.80;47.10;101358.06;1332764;106;21169;-82
2021/09/27 11:54:01;;;;;;;3.47;0.80;;;;;;;19.08;46.40;101351.33;1341946;105;21245;-82
2021/09/27 11:57:07;;;;;;;1.10;0.80;;;;;;;19.31;45.61;101352.31;1337982;106;21197;-82
2021/09/27 12:00:05;;;;;;;0.78;0.60;;;;;;;19.23;45.09;101357.90;1338080;106;21209;-83
2021/09/27 12:02:50;;;;;;;2.58;0.70;;;;;;;18.93;44.76;101355.92;1338058;106;21224;-83
2021/09/27 12:05:37;;;;;;;1.57;0.72;;;;;;;18.71;46.46;101356.52;1338258;106;21239;-83
2021/09/27 12:08:11;;;;;;;3.83;0.90;;;;;;;18.57;47.44;101357.80;1337952;106;21386;-82
2021/09/27 12:10:58;;;;;;;1.82;0.72;;;;;;;18.55;47.38;101360.00;1332460;106;21141;-82
2021/09/27 12:13:30;;;;;;;3.87;1.15;;;;;;;18.37;47.36;101358.08;1339136;104;21138;-82
2021/09/27 12:15:59;;;;;;;1.62;0.82;;;;;;;18.27;48.61;101362.32;1356121;104;21139;-82
2021/09/27 12:18:52;;;;;;;0.90;0.50;;;;;;;18.04;47.46;101359.88;1355871;104;21214;-82
2021/09/27 12:21:27;;;;;;;2.30;0.90;;;;;;;18.05;49.12;101363.66;1355877;104;21106;-82
2021/09/27 12:24:19;;;;;;;4.03;1.15;;;;;;;18.21;50.51;101362.13;1363766;103;21563;-82
2021/09/27 12:27:08;;;;;;;1.47;0.60;;;;;;;18.28;50.22;101368.84;1349441;104;21206;-82
2021/09/27 12:29:57;;;;;;;3.90;1.05;;;;;;;18.14;50.34;101357.81;1382887;102;21762;-81
2021/09/27 12:32:34;;;;;;;2.35;0.88;;;;;;;17.89;49.56;101358.95;1348103;104;21151;-81
2021/09/27 12:35:01;;;;;;;1.45;0.80;;;;;;;17.65;50.92;101363.00;1323432;107;21605;-82
2021/09/27 12:37:37;;;;;;;1.22;0.90;;;;;;;17.44;52.08;101368.36;1345572;105;21089;-82
2021/09/27 12:40:09;;;;;;;2.30;0.80;;;;;;;17.37;54.53;101360.53;1321711;107;21147;-82
2021/09/27 12:42:49;;;;;;;4.37;0.80;;;;;;;17.44;54.73;101364.27;1362375;104;21152;-81